Time;durP1;ratioP1;P1;durP2;ratioP2;P2;SDS_P1;SDS_P2;PMS_P1;PMS_P2;Temp;Humidity;BMP_temperature;BMP_pressure;BME280_temperature;BME280_humidity;BME280_pressure;Samples;Min_cycle;Max_cycle;Signal;HPM_P1;HPM_P2
2022/08/16 00:01:59;;;;;;;;;;;;;;;21.16;51.91406;100617;;;;-74
2022/08/16 00:06:58;;;;;;;;;;;;;;;21.11;52.0791;100618.7;;;;-76
2022/08/16 00:11:58;;;;;;;;;;;;;;;21.03;52.11621;100623.4;;;;-76
2022/08/16 00:16:58;;;;;;;;;;;;;;;21.03;52.33398;100623.1;;;;-75
2022/08/16 00:18:26;;;;;;;10.4;6.6;;;;;;;;;;;;;-74
2022/08/16 00:21:58;;;;;;;;;;;;;;;20.99;52.25879;100630.2;;;;-75
2022/08/16 00:26:58;;;;;;;;;;;;;;;20.95;52.50586;100635.3;;;;-74
2022/08/16 00:31:58;;;;;;;;;;;;;;;20.91;52.69531;100633;;;;-75
2022/08/16 00:36:58;;;;;;;;;;;;;;;20.88;52.58887;100635.1;;;;-75
2022/08/16 00:41:58;;;;;;;;;;;;;;;20.84;52.6416;100632;;;;-74
2022/08/16 00:47:00;;;;;;;;;;;;;;;20.79;53.13867;100631.1;;;;-75
2022/08/16 00:48:33;;;;;;;12.3;7.5;;;;;;;;;;;;;-75
2022/08/16 00:51:58;;;;;;;;;;;;;;;20.74;53.52148;100635;;;;-75
2022/08/16 00:56:59;;;;;;;;;;;;;;;20.72;53.4375;100629.7;;;;-75
2022/08/16 01:01:58;;;;;;;;;;;;;;;20.68;54.2666;100631.2;;;;-75
2022/08/16 01:06:58;;;;;;;;;;;;;;;20.65;54.37793;100632;;;;-75
2022/08/16 01:11:58;;;;;;;;;;;;;;;20.65;54.25098;100632.1;;;;-74
2022/08/16 01:16:59;;;;;;;;;;;;;;;20.63;54.29297;100628.3;;;;-75
2022/08/16 01:18:36;;;;;;;10.4;7;;;;;;;;;;;;;-74
2022/08/16 01:22:00;;;;;;;;;;;;;;;20.62;53.93945;100624.7;;;;-74
2022/08/16 01:27:05;;;;;;;;;;;;;;;20.61;53.57227;100622.8;;;;-76
2022/08/16 01:31:58;;;;;;;;;;;;;;;20.57;53.66016;100626.4;;;;-75
2022/08/16 01:37:04;;;;;;;;;;;;;;;20.56;53.28223;100619.9;;;;-75
2022/08/16 01:41:58;;;;;;;;;;;;;;;20.51;53.18457;100625.1;;;;-74
2022/08/16 01:46:58;;;;;;;;;;;;;;;20.51;53.45898;100617.1;;;;-74
2022/08/16 01:48:35;;;;;;;12.4;7.6;;;;;;;;;;;;;-75
2022/08/16 01:52:02;;;;;;;;;;;;;;;20.46;53.06543;100608.2;;;;-75
2022/08/16 01:56:58;;;;;;;;;;;;;;;20.43;53.08398;100610.4;;;;-75
2022/08/16 02:01:59;;;;;;;;;;;;;;;20.39;52.94336;100613;;;;-74
2022/08/16 02:06:58;;;;;;;;;;;;;;;20.36;52.97363;100611.3;;;;-75
2022/08/16 02:11:59;;;;;;;;;;;;;;;20.34;52.93652;100614.1;;;;-76
2022/08/16 02:16:58;;;;;;;;;;;;;;;20.29;53.15723;100613.2;;;;-75
2022/08/16 02:18:37;;;;;;;9.6;6.8;;;;;;;;;;;;;-75
2022/08/16 02:21:58;;;;;;;;;;;;;;;20.24;53.31152;100609.7;;;;-75
2022/08/16 02:26:59;;;;;;;;;;;;;;;20.23;53.8125;100606.8;;;;-73
2022/08/16 02:31:58;;;;;;;;;;;;;;;20.22;54.08496;100610.7;;;;-75
2022/08/16 02:36:58;;;;;;;;;;;;;;;20.18;53.51074;100607.3;;;;-73
2022/08/16 02:41:58;;;;;;;;;;;;;;;20.15;53.4375;100602.6;;;;-74
2022/08/16 02:46:58;;;;;;;;;;;;;;;20.12;53.73047;100600.3;;;;-74
2022/08/16 02:48:41;;;;;;;13.3;8.6;;;;;;;;;;;;;-76
2022/08/16 02:51:58;;;;;;;;;;;;;;;20.09;53.48828;100598.3;;;;-74
2022/08/16 02:56:58;;;;;;;;;;;;;;;20.07;54.05469;100597.8;;;;-75
2022/08/16 03:01:58;;;;;;;;;;;;;;;20.03;54.42676;100601.1;;;;-76
2022/08/16 03:07:00;;;;;;;;;;;;;;;20;54.17188;100597.6;;;;-74
2022/08/16 03:11:58;;;;;;;;;;;;;;;19.98;54.5918;100596.6;;;;-77
2022/08/16 03:16:58;;;;;;;;;;;;;;;19.97;54.52246;100594;;;;-76
2022/08/16 03:18:43;;;;;;;12.2;8.3;;;;;;;;;;;;;-74
2022/08/16 03:21:58;;;;;;;;;;;;;;;19.93;54.9043;100592.9;;;;-75
2022/08/16 03:26:58;;;;;;;;;;;;;;;19.9;54.78711;100590.9;;;;-76
2022/08/16 03:31:58;;;;;;;;;;;;;;;19.87;55.25;100595;;;;-74
2022/08/16 03:37:00;;;;;;;;;;;;;;;19.87;54.86328;100593.3;;;;-75
2022/08/16 03:42:00;;;;;;;;;;;;;;;19.83;54.67578;100594.4;;;;-76
2022/08/16 03:47:01;;;;;;;;;;;;;;;19.81;54.44629;100592.9;;;;-75
2022/08/16 03:48:45;;;;;;;14.2;9.1;;;;;;;;;;;;;-75
2022/08/16 03:51:58;;;;;;;;;;;;;;;19.78;54.53223;100597.1;;;;-75
2022/08/16 03:57:00;;;;;;;;;;;;;;;19.77;55.71582;100603.4;;;;-75
2022/08/16 04:01:58;;;;;;;;;;;;;;;19.74;55.31445;100603.4;;;;-74
2022/08/16 04:06:58;;;;;;;;;;;;;;;19.73;55.3457;100603.4;;;;-74
2022/08/16 04:11:58;;;;;;;;;;;;;;;19.71;55.76465;100610.5;;;;-74
2022/08/16 04:16:59;;;;;;;;;;;;;;;19.7;55.86621;100609.2;;;;-75
2022/08/16 04:18:48;;;;;;;18.8;10.9;;;;;;;;;;;;;-74
2022/08/16 04:21:58;;;;;;;;;;;;;;;19.71;55.79785;100613.3;;;;-76
2022/08/16 04:26:59;;;;;;;;;;;;;;;19.69;55.79688;100624.5;;;;-74
2022/08/16 04:31:58;;;;;;;;;;;;;;;19.7;56.70801;100630.3;;;;-76
2022/08/16 04:36:58;;;;;;;;;;;;;;;19.7;56.77637;100633;;;;-75
2022/08/16 04:41:58;;;;;;;;;;;;;;;19.7;56.75391;100637.4;;;;-75
2022/08/16 04:46:58;;;;;;;;;;;;;;;19.7;57.48145;100642.7;;;;-75
2022/08/16 04:48:51;;;;;;;20.4;12.9;;;;;;;;;;;;;-75
2022/08/16 04:51:58;;;;;;;;;;;;;;;19.72;57.28027;100639.7;;;;-74
2022/08/16 04:56:58;;;;;;;;;;;;;;;19.74;57.68066;100636.6;;;;-75
2022/08/16 05:01:58;;;;;;;;;;;;;;;19.78;57.65137;100649;;;;-76
2022/08/16 05:06:58;;;;;;;;;;;;;;;19.81;58.50977;100654.3;;;;-75
2022/08/16 05:11:58;;;;;;;;;;;;;;;19.82;58.09961;100660.5;;;;-75
2022/08/16 05:16:59;;;;;;;;;;;;;;;19.85;58.24023;100665.7;;;;-74
2022/08/16 05:18:55;;;;;;;19.1;12.8;;;;;;;;;;;;;-75
2022/08/16 05:21:58;;;;;;;;;;;;;;;19.87;57.7998;100669.2;;;;-76
2022/08/16 05:26:58;;;;;;;;;;;;;;;19.88;57.99512;100665.8;;;;-77
2022/08/16 05:31:58;;;;;;;;;;;;;;;19.91;58.3623;100662.2;;;;-76
2022/08/16 05:36:58;;;;;;;;;;;;;;;19.93;58.53613;100662.8;;;;-75
2022/08/16 05:41:59;;;;;;;;;;;;;;;19.98;58.73633;100669.9;;;;-75
2022/08/16 05:46:59;;;;;;;;;;;;;;;20.07;58.91895;100673.7;;;;-75
2022/08/16 05:48:58;;;;;;;22;13.7;;;;;;;;;;;;;-74
2022/08/16 05:51:58;;;;;;;;;;;;;;;20.22;59.00586;100685;;;;-74
2022/08/16 05:56:58;;;;;;;;;;;;;;;20.49;59.47656;100688.6;;;;-76
2022/08/16 06:01:58;;;;;;;;;;;;;;;20.84;59.71484;100689.7;;;;-75
2022/08/16 06:06:58;;;;;;;;;;;;;;;21.23;58.78613;100690.8;;;;-74
2022/08/16 06:11:59;;;;;;;;;;;;;;;21.6;58.20703;100694.8;;;;-76
2022/08/16 06:16:58;;;;;;;;;;;;;;;21.96;58.36914;100694.9;;;;-75
2022/08/16 06:18:59;;;;;;;24.9;14.7;;;;;;;;;;;;;-74
2022/08/16 06:21:58;;;;;;;;;;;;;;;22.3;57.43945;100704.6;;;;-75
2022/08/16 06:26:58;;;;;;;;;;;;;;;22.61;57.0791;100708.2;;;;-74
2022/08/16 06:31:58;;;;;;;;;;;;;;;22.89;56.30176;100705.8;;;;-76
2022/08/16 06:36:58;;;;;;;;;;;;;;;23.15;55.86328;100709.4;;;;-77
2022/08/16 06:41:58;;;;;;;;;;;;;;;23.39;55.75488;100713.3;;;;-75
2022/08/16 06:46:58;;;;;;;;;;;;;;;23.57;55.28418;100712.8;;;;-75
2022/08/16 06:49:05;;;;;;;22.8;14;;;;;;;;;;;;;-75
2022/08/16 06:51:58;;;;;;;;;;;;;;;23.72;55.24512;100718.6;;;;-76
2022/08/16 06:56:58;;;;;;;;;;;;;;;23.84;55.22559;100718.6;;;;-75
2022/08/16 07:01:58;;;;;;;;;;;;;;;24.03;55.14453;100717.8;;;;-75
2022/08/16 07:06:58;;;;;;;;;;;;;;;24.29;54.79688;100714.5;;;;-76
2022/08/16 07:11:58;;;;;;;;;;;;;;;24.57;54.44043;100718;;;;-77
2022/08/16 07:16:58;;;;;;;;;;;;;;;24.84;54.03418;100721.3;;;;-75
2022/08/16 07:19:06;;;;;;;21.5;14.2;;;;;;;;;;;;;-76
2022/08/16 07:22:01;;;;;;;;;;;;;;;25.12;53.61914;100736.4;;;;-75
2022/08/16 07:26:58;;;;;;;;;;;;;;;25.39;53.24707;100738;;;;-74
2022/08/16 07:31:58;;;;;;;;;;;;;;;25.59;53.05273;100739;;;;-75
2022/08/16 07:36:58;;;;;;;;;;;;;;;25.82;52.81348;100740.1;;;;-78
2022/08/16 07:41:58;;;;;;;;;;;;;;;26.07;52.14844;100740.2;;;;-80
2022/08/16 07:47:00;;;;;;;;;;;;;;;26.37;51.69824;100740.3;;;;-78
2022/08/16 07:49:10;;;;;;;19.4;13.3;;;;;;;;;;;;;-78
2022/08/16 07:51:58;;;;;;;;;;;;;;;26.66;51.33789;100741.3;;;;-77
2022/08/16 07:56:58;;;;;;;;;;;;;;;26.84;51.11523;100741.6;;;;-77
2022/08/16 08:01:58;;;;;;;;;;;;;;;27.02;50.59082;100740.1;;;;-78
2022/08/16 08:06:58;;;;;;;;;;;;;;;27.14;50.47656;100744.9;;;;-78
2022/08/16 08:11:58;;;;;;;;;;;;;;;27.36;50.33984;100746;;;;-78
2022/08/16 08:16:58;;;;;;;;;;;;;;;27.68;50.08398;100746.8;;;;-78
2022/08/16 08:19:15;;;;;;;17;11.9;;;;;;;;;;;;;-78
2022/08/16 08:21:58;;;;;;;;;;;;;;;28.02;49.83203;100755.1;;;;-79
2022/08/16 08:26:58;;;;;;;;;;;;;;;28.39;49.1748;100762.2;;;;-78
2022/08/16 08:31:59;;;;;;;;;;;;;;;28.78;48.60059;100768.1;;;;-77
2022/08/16 08:36:58;;;;;;;;;;;;;;;29.09;48.4707;100773.8;;;;-77
2022/08/16 08:42:00;;;;;;;;;;;;;;;29.42;47.73633;100777.1;;;;-76
2022/08/16 08:46:59;;;;;;;;;;;;;;;29.71;46.98438;100779.7;;;;-77
2022/08/16 08:49:19;;;;;;;14.9;9.2;;;;;;;;;;;;;-77
2022/08/16 08:51:58;;;;;;;;;;;;;;;29.94;46.56543;100779.8;;;;-78
2022/08/16 08:56:58;;;;;;;;;;;;;;;30.22;46.0918;100776.9;;;;-77
2022/08/16 09:01:58;;;;;;;;;;;;;;;30.57;45.58887;100783.2;;;;-77
2022/08/16 09:06:58;;;;;;;;;;;;;;;30.95;45.0293;100786.1;;;;-79
2022/08/16 09:11:58;;;;;;;;;;;;;;;31.24;44.19141;100792.1;;;;-76
2022/08/16 09:16:58;;;;;;;;;;;;;;;31.43;43.82324;100794;;;;-75
2022/08/16 09:19:24;;;;;;;15.3;8.3;;;;;;;;;;;;;-75
2022/08/16 09:21:58;;;;;;;;;;;;;;;31.67;43.56348;100799.5;;;;-75
2022/08/16 09:26:58;;;;;;;;;;;;;;;31.95;42.98047;100807.4;;;;-75
2022/08/16 09:32:00;;;;;;;;;;;;;;;32.2;42.60449;100815.2;;;;-75
2022/08/16 09:36:58;;;;;;;;;;;;;;;32.38;42.46875;100818.2;;;;-76
2022/08/16 09:41:59;;;;;;;;;;;;;;;32.6;41.30078;100824.9;;;;-77
2022/08/16 09:46:58;;;;;;;;;;;;;;;32.77;40.75195;100822.8;;;;-76
2022/08/16 09:49:29;;;;;;;9.5;6.2;;;;;;;;;;;;;-76
2022/08/16 09:51:58;;;;;;;;;;;;;;;32.99;40.47559;100832.7;;;;-77
2022/08/16 09:56:58;;;;;;;;;;;;;;;33.04;40.03418;100833.1;;;;-74
2022/08/16 10:01:58;;;;;;;;;;;;;;;32.93;39.75391;100832.9;;;;-80
2022/08/16 10:06:59;;;;;;;;;;;;;;;32.92;40.05762;100833.2;;;;-76
2022/08/16 10:16:58;;;;;;;;;;;;;;;33.24;40.20508;100828.9;;;;-74
2022/08/16 10:19:36;;;;;;;9.3;4.9;;;;;;;;;;;;;-77
2022/08/16 10:21:58;;;;;;;;;;;;;;;33.38;39.89844;100833.4;;;;-76
2022/08/16 10:26:58;;;;;;;;;;;;;;;33.42;39.73633;100830.7;;;;-74
2022/08/16 10:31:59;;;;;;;;;;;;;;;33.33;39.46973;100833.8;;;;-76
2022/08/16 10:36:58;;;;;;;;;;;;;;;33.22;39.625;100840.5;;;;-75
2022/08/16 10:41:58;;;;;;;;;;;;;;;33.22;39.6377;100842.9;;;;-77
2022/08/16 10:46:57;;;;;;;;;;;;;;;33.29;39.85547;100846.8;;;;-76
2022/08/16 10:49:40;;;;;;;8.2;4.8;;;;;;;;;;;;;-76
2022/08/16 10:51:57;;;;;;;;;;;;;;;33.37;39.74316;100852.2;;;;-77
2022/08/16 10:56:58;;;;;;;;;;;;;;;33.42;39.83203;100861.1;;;;-76
2022/08/16 11:02:00;;;;;;;;;;;;;;;33.46;39.7998;100856.4;;;;-78
2022/08/16 11:06:58;;;;;;;;;;;;;;;33.49;39.79004;100864.6;;;;-78
2022/08/16 11:11:57;;;;;;;;;;;;;;;33.56;39.72461;100873.7;;;;-76
2022/08/16 11:17:00;;;;;;;;;;;;;;;33.59;39.45703;100873.9;;;;-76
2022/08/16 11:19:45;;;;;;;7.5;4.3;;;;;;;;;;;;;-75
2022/08/16 11:21:58;;;;;;;;;;;;;;;33.65;39.41504;100884;;;;-75
2022/08/16 11:26:57;;;;;;;;;;;;;;;33.74;39.2334;100888;;;;-75
2022/08/16 11:31:58;;;;;;;;;;;;;;;33.78;39.36719;100896.3;;;;-75
2022/08/16 11:36:58;;;;;;;;;;;;;;;33.85;39.47949;100902.1;;;;-76
2022/08/16 11:41:58;;;;;;;;;;;;;;;33.93;39.21484;100903.9;;;;-75
2022/08/16 11:46:58;;;;;;;;;;;;;;;34.08;39.27441;100910.7;;;;-76
2022/08/16 11:49:51;;;;;;;6;4.3;;;;;;;;;;;;;-75
2022/08/16 11:51:58;;;;;;;;;;;;;;;34.23;38.9209;100914.6;;;;-76
2022/08/16 11:56:58;;;;;;;;;;;;;;;34.43;38.84375;100916.5;;;;-76
2022/08/16 12:02:00;;;;;;;;;;;;;;;34.64;38.71875;100921.4;;;;-77
2022/08/16 12:06:58;;;;;;;;;;;;;;;34.82;37.96582;100923.6;;;;-75
2022/08/16 12:11:58;;;;;;;;;;;;;;;34.97;38.19141;100922.3;;;;-75
2022/08/16 12:16:59;;;;;;;;;;;;;;;35.16;38.21777;100927.7;;;;-76
2022/08/16 12:19:56;;;;;;;7.6;4.8;;;;;;;;;;;;;-75
2022/08/16 12:21:58;;;;;;;;;;;;;;;35.32;38.04199;100928.4;;;;-75
2022/08/16 12:26:58;;;;;;;;;;;;;;;35.49;38.02051;100930.7;;;;-75
2022/08/16 12:31:58;;;;;;;;;;;;;;;35.69;37.55176;100937.9;;;;-76
2022/08/16 12:36:58;;;;;;;;;;;;;;;35.71;37.63574;100936.6;;;;-75
2022/08/16 12:41:58;;;;;;;;;;;;;;;35.63;37.86621;100938.1;;;;-74
2022/08/16 12:50:03;;;;;;;7.3;4.2;;;;;;;;;;;;;-74
2022/08/16 12:51:57;;;;;;;;;;;;;;;35.41;37.99023;100945.7;;;;-77
2022/08/16 12:56:58;;;;;;;;;;;;;;;35.34;37.92578;100957.9;;;;-77
2022/08/16 13:02:07;;;;;;;;;;;;;;;35.27;37.73047;100963.9;;;;-75
2022/08/16 13:06:59;;;;;;;;;;;;;;;35.21;37.87891;100964.3;;;;-78
2022/08/16 13:12:07;;;;;;;;;;;;;;;35.18;37.72363;100971;;;;-76
2022/08/16 13:16:58;;;;;;;;;;;;;;;35.14;37.57715;100968.4;;;;-76
2022/08/16 13:20:10;;;;;;;8;4.7;;;;;;;;;;;;;-77
2022/08/16 13:22:05;;;;;;;;;;;;;;;35.07;37.58398;100971.1;;;;-76
2022/08/16 13:27:03;;;;;;;;;;;;;;;34.96;37.55078;100970;;;;-78
2022/08/16 13:31:58;;;;;;;;;;;;;;;34.84;37.59961;100972.9;;;;-78
2022/08/16 13:36:58;;;;;;;;;;;;;;;34.74;37.68652;100973.8;;;;-77
2022/08/16 13:42:01;;;;;;;;;;;;;;;34.65;37.62012;100974.3;;;;-80
2022/08/16 13:47:03;;;;;;;;;;;;;;;34.55;37.82422;100973.1;;;;-76
2022/08/16 13:50:16;;;;;;;8.2;4.3;;;;;;;;;;;;;-75
2022/08/16 13:51:58;;;;;;;;;;;;;;;34.45;37.98242;100977;;;;-76
2022/08/16 13:57:00;;;;;;;;;;;;;;;34.32;38.11426;100969.5;;;;-77
2022/08/16 14:01:58;;;;;;;;;;;;;;;34.24;38.22461;100970.1;;;;-76
2022/08/16 14:06:58;;;;;;;;;;;;;;;34.15;38.33594;100975.3;;;;-76
2022/08/16 14:11:58;;;;;;;;;;;;;;;34.1;38.41406;100979;;;;-76
2022/08/16 14:16:57;;;;;;;;;;;;;;;34.05;38.44531;100981.8;;;;-76
2022/08/16 14:20:20;;;;;;;7.1;4.4;;;;;;;;;;;;;-74
2022/08/16 14:21:59;;;;;;;;;;;;;;;34.03;38.52637;100976.5;;;;-76
2022/08/16 14:26:57;;;;;;;;;;;;;;;34.01;38.53613;100973.9;;;;-76
2022/08/16 14:31:58;;;;;;;;;;;;;;;33.96;38.59082;100965.6;;;;-75
2022/08/16 14:36:57;;;;;;;;;;;;;;;33.87;38.66602;100966.2;;;;-75
2022/08/16 14:41:57;;;;;;;;;;;;;;;33.82;38.70996;100966.8;;;;-75
2022/08/16 14:46:58;;;;;;;;;;;;;;;33.81;38.69727;100971.2;;;;-75
2022/08/16 14:50:27;;;;;;;8.2;4.6;;;;;;;;;;;;;-75
2022/08/16 14:52:01;;;;;;;;;;;;;;;33.81;38.67188;100975.9;;;;-76
2022/08/16 14:56:58;;;;;;;;;;;;;;;33.78;38.62305;100973.5;;;;-76
2022/08/16 15:01:58;;;;;;;;;;;;;;;33.73;38.64355;100970.1;;;;-76
2022/08/16 15:06:57;;;;;;;;;;;;;;;33.71;38.67578;100974.2;;;;-76
2022/08/16 15:11:57;;;;;;;;;;;;;;;33.64;38.7168;100976.9;;;;-75
2022/08/16 15:16:57;;;;;;;;;;;;;;;33.53;38.66113;100979.6;;;;-75
2022/08/16 15:20:34;;;;;;;7.4;5.4;;;;;;;;;;;;;-74
2022/08/16 15:21:57;;;;;;;;;;;;;;;33.48;38.82227;100978.1;;;;-74
2022/08/16 15:27:00;;;;;;;;;;;;;;;33.5;38.66992;100985.5;;;;-75
2022/08/16 15:31:57;;;;;;;;;;;;;;;33.52;38.66113;100975.7;;;;-75
2022/08/16 15:36:58;;;;;;;;;;;;;;;33.48;38.75098;100982.2;;;;-75
2022/08/16 15:42:05;;;;;;;;;;;;;;;33.35;39.01172;100995.1;;;;-77
2022/08/16 15:46:58;;;;;;;;;;;;;;;33.16;39.32422;100998;;;;-75
2022/08/16 15:50:39;;;;;;;11.7;8.5;;;;;;;;;;;;;-75
2022/08/16 15:51:58;;;;;;;;;;;;;;;32.95;39.69629;101007.6;;;;-75
2022/08/16 15:56:58;;;;;;;;;;;;;;;32.72;39.94629;101017.5;;;;-74
2022/08/16 16:01:58;;;;;;;;;;;;;;;32.46;40.28906;101021.5;;;;-75
2022/08/16 16:06:58;;;;;;;;;;;;;;;32.19;40.62891;101019.6;;;;-74
2022/08/16 16:11:57;;;;;;;;;;;;;;;31.93;40.90039;101024.7;;;;-76
2022/08/16 16:16:59;;;;;;;;;;;;;;;31.68;41.06543;101024.2;;;;-75
2022/08/16 16:20:45;;;;;;;10.8;8.5;;;;;;;;;;;;;-75
2022/08/16 16:21:57;;;;;;;;;;;;;;;31.45;41.12695;101019.3;;;;-74
2022/08/16 16:26:58;;;;;;;;;;;;;;;31.3;41.21973;101014.7;;;;-74
2022/08/16 16:31:58;;;;;;;;;;;;;;;31.19;41.13867;101015.3;;;;-76
2022/08/16 16:36:58;;;;;;;;;;;;;;;31.1;41.04785;101008.5;;;;-74
2022/08/16 16:41:58;;;;;;;;;;;;;;;31.01;40.77051;101005;;;;-74
2022/08/16 16:46:57;;;;;;;;;;;;;;;30.92;40.9502;101002.8;;;;-74
2022/08/16 16:50:52;;;;;;;10.2;6.7;;;;;;;;;;;;;-77
2022/08/16 16:51:57;;;;;;;;;;;;;;;30.83;41.03613;101013.4;;;;-78
2022/08/16 16:56:58;;;;;;;;;;;;;;;30.71;40.86133;101011.3;;;;-77
2022/08/16 17:01:59;;;;;;;;;;;;;;;30.57;40.84863;101012.9;;;;-78
2022/08/16 17:06:58;;;;;;;;;;;;;;;30.45;40.81445;101021.2;;;;-76
2022/08/16 17:11:58;;;;;;;;;;;;;;;30.31;40.97754;101028.9;;;;-76
2022/08/16 17:16:58;;;;;;;;;;;;;;;30.14;41.05566;101029.6;;;;-76
2022/08/16 17:20:53;;;;;;;9.7;7.7;;;;;;;;;;;;;-76
2022/08/16 17:21:58;;;;;;;;;;;;;;;29.96;41.2041;101023.5;;;;-78
2022/08/16 17:26:58;;;;;;;;;;;;;;;29.75;41.41797;101022.9;;;;-77
2022/08/16 17:32:00;;;;;;;;;;;;;;;29.54;41.48047;101025.2;;;;-78
2022/08/16 17:36:59;;;;;;;;;;;;;;;29.32;41.45996;101026;;;;-77
2022/08/16 17:41:58;;;;;;;;;;;;;;;29.09;41.71973;101026.5;;;;-76
2022/08/16 17:46:58;;;;;;;;;;;;;;;28.84;41.83691;101021.1;;;;-77
2022/08/16 17:50:58;;;;;;;14.9;8.8;;;;;;;;;;;;;-77
2022/08/16 17:51:58;;;;;;;;;;;;;;;28.6;42.30273;101026.5;;;;-78
2022/08/16 17:56:58;;;;;;;;;;;;;;;28.38;42.45703;101024.8;;;;-77
2022/08/16 18:01:58;;;;;;;;;;;;;;;28.16;42.51953;101028.6;;;;-77
2022/08/16 18:06:58;;;;;;;;;;;;;;;27.93;42.89355;101034.8;;;;-79
2022/08/16 18:11:57;;;;;;;;;;;;;;;27.73;43.24609;101033.6;;;;-77
2022/08/16 18:16:57;;;;;;;;;;;;;;;27.52;43.2959;101048.7;;;;-77
2022/08/16 18:26:57;;;;;;;;;;;;;;;27.12;44.00195;101045;;;;-76
2022/08/16 18:31:58;;;;;;;;;;;;;;;26.94;44.2041;101051.5;;;;-77
2022/08/16 18:37:00;;;;;;;;;;;;;;;26.75;44.51074;101047.3;;;;-77
2022/08/16 18:41:58;;;;;;;;;;;;;;;26.58;44.76074;101050.3;;;;-77
2022/08/16 18:46:58;;;;;;;;;;;;;;;26.41;45.14941;101046.6;;;;-77
2022/08/16 18:51:09;;;;;;;10.7;7.8;;;;;;;;;;;;;-77
2022/08/16 18:51:58;;;;;;;;;;;;;;;26.23;45.40918;101042;;;;-78
2022/08/16 18:56:58;;;;;;;;;;;;;;;26.04;45.78418;101041.5;;;;-77
2022/08/16 19:01:58;;;;;;;;;;;;;;;25.87;46.05566;101036;;;;-77
2022/08/16 19:06:57;;;;;;;;;;;;;;;25.69;46.47754;101037.3;;;;-77
2022/08/16 19:11:58;;;;;;;;;;;;;;;25.52;46.72559;101042.1;;;;-77
2022/08/16 19:16:58;;;;;;;;;;;;;;;25.38;47.10352;101052.8;;;;-77
2022/08/16 19:21:14;;;;;;;11.4;8.4;;;;;;;;;;;;;-77
2022/08/16 19:21:57;;;;;;;;;;;;;;;25.22;47.43359;101060.5;;;;-75
2022/08/16 19:26:58;;;;;;;;;;;;;;;25.09;47.69727;101062.6;;;;-76
2022/08/16 19:31:58;;;;;;;;;;;;;;;24.95;47.97168;101064.8;;;;-77
2022/08/16 19:36:57;;;;;;;;;;;;;;;24.83;48.23535;101070.3;;;;-78
2022/08/16 19:41:58;;;;;;;;;;;;;;;24.72;48.53418;101084.3;;;;-77
2022/08/16 19:46:58;;;;;;;;;;;;;;;24.59;48.70508;101089.5;;;;-77
2022/08/16 19:51:15;;;;;;;12.6;8.6;;;;;;;;;;;;;-77
2022/08/16 19:51:58;;;;;;;;;;;;;;;24.46;48.75977;101087.6;;;;-78
2022/08/16 19:56:57;;;;;;;;;;;;;;;24.38;49.15527;101084.9;;;;-75
2022/08/16 20:01:59;;;;;;;;;;;;;;;24.29;49.19043;101088.6;;;;-76
2022/08/16 20:06:58;;;;;;;;;;;;;;;24.21;49.32031;101106.1;;;;-75
2022/08/16 20:11:58;;;;;;;;;;;;;;;24.14;49.43945;101108.9;;;;-75
2022/08/16 20:16:58;;;;;;;;;;;;;;;24.08;49.52539;101109.9;;;;-76
2022/08/16 20:21:18;;;;;;;12.3;8.7;;;;;;;;;;;;;-74
2022/08/16 20:21:59;;;;;;;;;;;;;;;23.99;49.59668;101119.9;;;;-74
2022/08/16 20:26:58;;;;;;;;;;;;;;;23.92;49.59961;101129.2;;;;-74
2022/08/16 20:31:57;;;;;;;;;;;;;;;23.88;49.56152;101129.1;;;;-75
2022/08/16 20:37:00;;;;;;;;;;;;;;;23.83;49.68164;101133.2;;;;-74
2022/08/16 20:41:57;;;;;;;;;;;;;;;23.73;49.64746;101123.2;;;;-74
2022/08/16 20:46:58;;;;;;;;;;;;;;;23.7;49.66699;101129.2;;;;-71
2022/08/16 20:51:22;;;;;;;10.6;7.8;;;;;;;;;;;;;-75
2022/08/16 20:51:57;;;;;;;;;;;;;;;23.64;49.82031;101127.2;;;;-74
2022/08/16 20:56:57;;;;;;;;;;;;;;;23.58;49.81543;101127.6;;;;-76
2022/08/16 21:01:58;;;;;;;;;;;;;;;23.52;49.88867;101125.9;;;;-74
2022/08/16 21:06:58;;;;;;;;;;;;;;;23.46;49.87109;101134.8;;;;-76
2022/08/16 21:12:07;;;;;;;;;;;;;;;23.4;50.03711;101148.3;;;;-75
2022/08/16 21:16:58;;;;;;;;;;;;;;;23.32;50.16602;101157.9;;;;-75
2022/08/16 21:21:26;;;;;;;12.1;8.7;;;;;;;;;;;;;-73
2022/08/16 21:21:58;;;;;;;;;;;;;;;23.26;50.26172;101160.3;;;;-73
2022/08/16 21:26:59;;;;;;;;;;;;;;;23.18;50.47266;101162.2;;;;-75
2022/08/16 21:32:06;;;;;;;;;;;;;;;23.13;50.59375;101159.5;;;;-75
2022/08/16 21:36:57;;;;;;;;;;;;;;;23.06;50.83691;101157.6;;;;-75
2022/08/16 21:41:58;;;;;;;;;;;;;;;22.97;50.86133;101155.5;;;;-75
2022/08/16 21:46:57;;;;;;;;;;;;;;;22.9;50.99023;101162.9;;;;-74
2022/08/16 21:51:29;;;;;;;13.8;9.5;;;;;;;;;;;;;-75
2022/08/16 21:51:57;;;;;;;;;;;;;;;22.8;51.01367;101163.5;;;;-75
2022/08/16 21:56:57;;;;;;;;;;;;;;;22.69;51.27734;101163.4;;;;-77
2022/08/16 22:01:59;;;;;;;;;;;;;;;22.61;51.35938;101172.4;;;;-76
2022/08/16 22:06:57;;;;;;;;;;;;;;;22.53;51.35059;101177.5;;;;-73
2022/08/16 22:11:57;;;;;;;;;;;;;;;22.42;51.54297;101177.7;;;;-74
2022/08/16 22:16:58;;;;;;;;;;;;;;;22.33;51.68262;101179.9;;;;-75
2022/08/16 22:21:35;;;;;;;14.7;9.6;;;;;;;;;;;;;-78
2022/08/16 22:21:58;;;;;;;;;;;;;;;22.24;51.90137;101176.1;;;;-75
2022/08/16 22:26:57;;;;;;;;;;;;;;;22.17;52.04199;101175;;;;-75
2022/08/16 22:32:00;;;;;;;;;;;;;;;22.09;52.01074;101169.6;;;;-75
2022/08/16 22:36:57;;;;;;;;;;;;;;;22;52.24023;101167;;;;-75
2022/08/16 22:41:58;;;;;;;;;;;;;;;21.92;52.36816;101167.5;;;;-74
2022/08/16 22:46:57;;;;;;;;;;;;;;;21.84;52.4043;101154.1;;;;-75
2022/08/16 22:51:42;;;;;;;15;10.6;;;;;;;;;;;;;-77
2022/08/16 22:51:59;;;;;;;;;;;;;;;21.77;52.7168;101150.9;;;;-77
2022/08/16 22:56:58;;;;;;;;;;;;;;;21.7;52.84668;101142.8;;;;-77
2022/08/16 23:02:01;;;;;;;;;;;;;;;21.64;52.80469;101140.5;;;;-75
2022/08/16 23:07:02;;;;;;;;;;;;;;;21.59;52.76465;101138.9;;;;-77
2022/08/16 23:11:57;;;;;;;;;;;;;;;21.53;52.91699;101133.3;;;;-74
2022/08/16 23:16:57;;;;;;;;;;;;;;;21.45;52.89648;101140.5;;;;-74
2022/08/16 23:21:42;;;;;;;15.6;10.6;;;;;;;;;;;;;-75
2022/08/16 23:21:57;;;;;;;;;;;;;;;21.41;53.13184;101131.3;;;;-74
2022/08/16 23:26:59;;;;;;;;;;;;;;;21.35;53.03418;101129.6;;;;-74
2022/08/16 23:31:58;;;;;;;;;;;;;;;21.35;53.14746;101121.1;;;;-75
2022/08/16 23:36:57;;;;;;;;;;;;;;;21.31;52.95996;101117;;;;-74
2022/08/16 23:41:58;;;;;;;;;;;;;;;21.29;52.94629;101122.3;;;;-74
2022/08/16 23:46:57;;;;;;;;;;;;;;;21.26;53.11523;101125.5;;;;-75
2022/08/16 23:51:43;;;;;;;13.7;9.7;;;;;;;;;;;;;-74
2022/08/16 23:51:58;;;;;;;;;;;;;;;21.24;52.89453;101127.3;;;;-75
2022/08/16 23:56:57;;;;;;;;;;;;;;;21.19;52.93359;101120.3;;;;-75
